sensor_id;sensor_type;location;lat;lon;timestamp;P1;durP1;ratioP1;P2;durP2;ratioP2
57389;SDS011;43217;52.694;6.214;2024-01-30T00:01:37;27.23;;;24.33;;
57389;SDS011;43217;52.694;6.214;2024-01-30T00:04:03;26.40;;;23.55;;
57389;SDS011;43217;52.694;6.214;2024-01-30T00:06:28;26.58;;;23.50;;
57389;SDS011;43217;52.694;6.214;2024-01-30T00:08:54;25.85;;;23.10;;
57389;SDS011;43217;52.694;6.214;2024-01-30T00:11:19;27.98;;;23.83;;
57389;SDS011;43217;52.694;6.214;2024-01-30T00:13:46;26.20;;;23.50;;
57389;SDS011;43217;52.694;6.214;2024-01-30T00:16:21;27.55;;;24.67;;
57389;SDS011;43217;52.694;6.214;2024-01-30T00:18:47;27.48;;;24.60;;
57389;SDS011;43217;52.694;6.214;2024-01-30T00:21:13;26.38;;;23.45;;
57389;SDS011;43217;52.694;6.214;2024-01-30T00:23:39;28.60;;;24.75;;
57389;SDS011;43217;52.694;6.214;2024-01-30T00:26:04;29.45;;;26.23;;
57389;SDS011;43217;52.694;6.214;2024-01-30T00:28:31;29.70;;;26.50;;
57389;SDS011;43217;52.694;6.214;2024-01-30T00:30:56;33.65;;;28.17;;
57389;SDS011;43217;52.694;6.214;2024-01-30T00:33:22;33.63;;;27.63;;
57389;SDS011;43217;52.694;6.214;2024-01-30T00:35:47;31.45;;;27.58;;
57389;SDS011;43217;52.694;6.214;2024-01-30T00:38:13;29.00;;;25.83;;
57389;SDS011;43217;52.694;6.214;2024-01-30T00:40:39;29.77;;;26.55;;
57389;SDS011;43217;52.694;6.214;2024-01-30T00:43:04;29.92;;;26.60;;
57389;SDS011;43217;52.694;6.214;2024-01-30T00:45:30;30.00;;;26.90;;
57389;SDS011;43217;52.694;6.214;2024-01-30T00:47:56;31.55;;;27.20;;
57389;SDS011;43217;52.694;6.214;2024-01-30T00:50:21;30.70;;;27.30;;
57389;SDS011;43217;52.694;6.214;2024-01-30T00:52:47;30.17;;;26.98;;
57389;SDS011;43217;52.694;6.214;2024-01-30T00:55:13;32.67;;;28.05;;
57389;SDS011;43217;52.694;6.214;2024-01-30T00:57:39;30.50;;;26.88;;
57389;SDS011;43217;52.694;6.214;2024-01-30T01:00:05;32.17;;;27.88;;
57389;SDS011;43217;52.694;6.214;2024-01-30T01:02:34;31.40;;;28.10;;
57389;SDS011;43217;52.694;6.214;2024-01-30T01:05:02;30.10;;;26.85;;
57389;SDS011;43217;52.694;6.214;2024-01-30T01:07:28;32.47;;;28.35;;
57389;SDS011;43217;52.694;6.214;2024-01-30T01:09:54;32.50;;;28.42;;
57389;SDS011;43217;52.694;6.214;2024-01-30T01:12:19;30.77;;;27.20;;
57389;SDS011;43217;52.694;6.214;2024-01-30T01:14:45;32.10;;;28.60;;
57389;SDS011;43217;52.694;6.214;2024-01-30T01:17:11;33.22;;;29.63;;
57389;SDS011;43217;52.694;6.214;2024-01-30T01:19:37;32.63;;;29.13;;
57389;SDS011;43217;52.694;6.214;2024-01-30T01:22:02;33.25;;;29.60;;
57389;SDS011;43217;52.694;6.214;2024-01-30T01:24:30;35.15;;;30.20;;
57389;SDS011;43217;52.694;6.214;2024-01-30T01:26:57;31.98;;;28.45;;
57389;SDS011;43217;52.694;6.214;2024-01-30T01:29:23;32.10;;;28.65;;
57389;SDS011;43217;52.694;6.214;2024-01-30T01:31:54;32.70;;;28.50;;
57389;SDS011;43217;52.694;6.214;2024-01-30T01:34:21;33.88;;;29.85;;
57389;SDS011;43217;52.694;6.214;2024-01-30T01:36:47;30.45;;;27.33;;
57389;SDS011;43217;52.694;6.214;2024-01-30T01:39:16;31.73;;;28.23;;
57389;SDS011;43217;52.694;6.214;2024-01-30T01:41:42;31.52;;;28.17;;
57389;SDS011;43217;52.694;6.214;2024-01-30T01:44:08;31.40;;;27.80;;
57389;SDS011;43217;52.694;6.214;2024-01-30T01:46:34;31.52;;;27.92;;
57389;SDS011;43217;52.694;6.214;2024-01-30T01:49:03;30.70;;;27.52;;
57389;SDS011;43217;52.694;6.214;2024-01-30T01:51:30;31.35;;;28.05;;
57389;SDS011;43217;52.694;6.214;2024-01-30T01:53:59;36.15;;;29.58;;
57389;SDS011;43217;52.694;6.214;2024-01-30T01:56:28;30.80;;;27.50;;
57389;SDS011;43217;52.694;6.214;2024-01-30T01:58:55;31.47;;;28.00;;
57389;SDS011;43217;52.694;6.214;2024-01-30T02:01:25;29.60;;;26.42;;
57389;SDS011;43217;52.694;6.214;2024-01-30T02:03:52;30.55;;;26.98;;
57389;SDS011;43217;52.694;6.214;2024-01-30T02:06:18;31.70;;;26.58;;
57389;SDS011;43217;52.694;6.214;2024-01-30T02:08:44;31.23;;;27.95;;
57389;SDS011;43217;52.694;6.214;2024-01-30T02:11:10;31.35;;;28.00;;
57389;SDS011;43217;52.694;6.214;2024-01-30T02:13:36;31.10;;;26.60;;
57389;SDS011;43217;52.694;6.214;2024-01-30T02:16:02;30.02;;;26.83;;
57389;SDS011;43217;52.694;6.214;2024-01-30T02:18:28;30.63;;;27.02;;
57389;SDS011;43217;52.694;6.214;2024-01-30T02:20:54;28.85;;;25.52;;
57389;SDS011;43217;52.694;6.214;2024-01-30T02:25:48;30.55;;;27.20;;
57389;SDS011;43217;52.694;6.214;2024-01-30T02:28:14;30.25;;;26.98;;
57389;SDS011;43217;52.694;6.214;2024-01-30T02:30:42;32.40;;;27.75;;
57389;SDS011;43217;52.694;6.214;2024-01-30T02:33:08;30.95;;;27.02;;
57389;SDS011;43217;52.694;6.214;2024-01-30T02:35:34;29.55;;;26.50;;
57389;SDS011;43217;52.694;6.214;2024-01-30T02:38:00;31.65;;;26.63;;
57389;SDS011;43217;52.694;6.214;2024-01-30T02:40:25;30.02;;;26.73;;
57389;SDS011;43217;52.694;6.214;2024-01-30T02:42:51;28.77;;;25.27;;
57389;SDS011;43217;52.694;6.214;2024-01-30T02:45:17;30.58;;;26.33;;
57389;SDS011;43217;52.694;6.214;2024-01-30T02:47:42;31.13;;;26.50;;
57389;SDS011;43217;52.694;6.214;2024-01-30T02:50:08;30.55;;;26.15;;
57389;SDS011;43217;52.694;6.214;2024-01-30T02:52:34;28.48;;;25.48;;
57389;SDS011;43217;52.694;6.214;2024-01-30T02:55:00;30.77;;;25.65;;
57389;SDS011;43217;52.694;6.214;2024-01-30T02:57:25;30.48;;;24.98;;
57389;SDS011;43217;52.694;6.214;2024-01-30T02:59:51;29.60;;;26.50;;
57389;SDS011;43217;52.694;6.214;2024-01-30T03:02:17;29.20;;;25.92;;
57389;SDS011;43217;52.694;6.214;2024-01-30T03:04:43;29.63;;;26.35;;
57389;SDS011;43217;52.694;6.214;2024-01-30T03:07:08;31.92;;;28.52;;
57389;SDS011;43217;52.694;6.214;2024-01-30T03:09:34;30.80;;;26.27;;
57389;SDS011;43217;52.694;6.214;2024-01-30T03:12:01;30.77;;;26.98;;
57389;SDS011;43217;52.694;6.214;2024-01-30T03:14:27;30.13;;;26.92;;
57389;SDS011;43217;52.694;6.214;2024-01-30T03:16:52;29.95;;;26.75;;
57389;SDS011;43217;52.694;6.214;2024-01-30T03:19:18;29.17;;;26.05;;
57389;SDS011;43217;52.694;6.214;2024-01-30T03:21:43;29.05;;;26.02;;
57389;SDS011;43217;52.694;6.214;2024-01-30T03:24:09;29.92;;;26.83;;
57389;SDS011;43217;52.694;6.214;2024-01-30T03:26:35;29.88;;;26.48;;
57389;SDS011;43217;52.694;6.214;2024-01-30T03:29:00;28.13;;;25.33;;
57389;SDS011;43217;52.694;6.214;2024-01-30T03:31:26;29.50;;;26.38;;
57389;SDS011;43217;52.694;6.214;2024-01-30T03:33:52;28.83;;;25.20;;
57389;SDS011;43217;52.694;6.214;2024-01-30T03:36:17;28.02;;;25.15;;
57389;SDS011;43217;52.694;6.214;2024-01-30T03:38:43;28.05;;;25.15;;
57389;SDS011;43217;52.694;6.214;2024-01-30T03:41:09;27.52;;;24.63;;
57389;SDS011;43217;52.694;6.214;2024-01-30T03:43:35;27.20;;;24.33;;
57389;SDS011;43217;52.694;6.214;2024-01-30T03:46:01;27.33;;;24.35;;
57389;SDS011;43217;52.694;6.214;2024-01-30T03:48:28;26.60;;;23.85;;
57389;SDS011;43217;52.694;6.214;2024-01-30T03:50:54;28.02;;;25.00;;
57389;SDS011;43217;52.694;6.214;2024-01-30T03:53:20;26.77;;;24.08;;
57389;SDS011;43217;52.694;6.214;2024-01-30T03:55:45;26.90;;;24.13;;
57389;SDS011;43217;52.694;6.214;2024-01-30T03:58:11;27.73;;;23.33;;
57389;SDS011;43217;52.694;6.214;2024-01-30T04:00:37;25.95;;;23.17;;
57389;SDS011;43217;52.694;6.214;2024-01-30T04:03:02;24.98;;;22.40;;
57389;SDS011;43217;52.694;6.214;2024-01-30T04:05:28;24.73;;;22.13;;
57389;SDS011;43217;52.694;6.214;2024-01-30T04:07:54;27.52;;;22.42;;
57389;SDS011;43217;52.694;6.214;2024-01-30T04:10:20;23.95;;;21.38;;
57389;SDS011;43217;52.694;6.214;2024-01-30T04:12:45;26.02;;;21.85;;
57389;SDS011;43217;52.694;6.214;2024-01-30T04:15:11;24.20;;;21.77;;
57389;SDS011;43217;52.694;6.214;2024-01-30T04:17:38;24.48;;;21.40;;
57389;SDS011;43217;52.694;6.214;2024-01-30T04:20:04;24.23;;;21.60;;
57389;SDS011;43217;52.694;6.214;2024-01-30T04:22:30;23.63;;;21.33;;
57389;SDS011;43217;52.694;6.214;2024-01-30T04:24:56;24.00;;;21.55;;
57389;SDS011;43217;52.694;6.214;2024-01-30T04:27:22;24.02;;;21.60;;
57389;SDS011;43217;52.694;6.214;2024-01-30T04:29:47;22.27;;;20.00;;
57389;SDS011;43217;52.694;6.214;2024-01-30T04:32:13;23.08;;;20.58;;
57389;SDS011;43217;52.694;6.214;2024-01-30T04:34:38;24.50;;;20.65;;
57389;SDS011;43217;52.694;6.214;2024-01-30T04:37:04;22.73;;;20.23;;
57389;SDS011;43217;52.694;6.214;2024-01-30T04:39:30;24.10;;;20.98;;
57389;SDS011;43217;52.694;6.214;2024-01-30T04:41:57;22.58;;;20.00;;
57389;SDS011;43217;52.694;6.214;2024-01-30T04:44:24;22.48;;;20.15;;
57389;SDS011;43217;52.694;6.214;2024-01-30T04:46:49;23.00;;;20.60;;
57389;SDS011;43217;52.694;6.214;2024-01-30T04:49:15;21.88;;;19.77;;
57389;SDS011;43217;52.694;6.214;2024-01-30T04:51:41;22.83;;;20.33;;
57389;SDS011;43217;52.694;6.214;2024-01-30T04:54:06;21.65;;;19.55;;
57389;SDS011;43217;52.694;6.214;2024-01-30T04:56:33;23.55;;;20.02;;
57389;SDS011;43217;52.694;6.214;2024-01-30T04:58:59;21.38;;;19.05;;
57389;SDS011;43217;52.694;6.214;2024-01-30T05:01:25;22.15;;;20.05;;
57389;SDS011;43217;52.694;6.214;2024-01-30T05:03:50;22.00;;;19.80;;
57389;SDS011;43217;52.694;6.214;2024-01-30T05:06:26;20.55;;;18.42;;
57389;SDS011;43217;52.694;6.214;2024-01-30T05:08:52;21.67;;;19.42;;
57389;SDS011;43217;52.694;6.214;2024-01-30T05:11:18;20.73;;;18.63;;
57389;SDS011;43217;52.694;6.214;2024-01-30T05:13:43;20.38;;;18.35;;
57389;SDS011;43217;52.694;6.214;2024-01-30T05:16:09;21.25;;;19.08;;
57389;SDS011;43217;52.694;6.214;2024-01-30T05:18:34;19.95;;;17.80;;
57389;SDS011;43217;52.694;6.214;2024-01-30T05:21:00;20.40;;;18.30;;
57389;SDS011;43217;52.694;6.214;2024-01-30T05:23:27;20.63;;;18.63;;
57389;SDS011;43217;52.694;6.214;2024-01-30T05:25:52;19.77;;;17.55;;
57389;SDS011;43217;52.694;6.214;2024-01-30T05:28:18;19.50;;;17.50;;
57389;SDS011;43217;52.694;6.214;2024-01-30T05:30:44;18.50;;;16.63;;
57389;SDS011;43217;52.694;6.214;2024-01-30T05:33:09;19.42;;;17.42;;
57389;SDS011;43217;52.694;6.214;2024-01-30T05:35:37;21.27;;;17.67;;
57389;SDS011;43217;52.694;6.214;2024-01-30T05:38:03;19.42;;;17.42;;
57389;SDS011;43217;52.694;6.214;2024-01-30T05:40:29;19.05;;;17.15;;
57389;SDS011;43217;52.694;6.214;2024-01-30T05:42:57;18.55;;;16.55;;
57389;SDS011;43217;52.694;6.214;2024-01-30T05:45:26;18.58;;;16.35;;
57389;SDS011;43217;52.694;6.214;2024-01-30T05:47:52;19.58;;;17.60;;
57389;SDS011;43217;52.694;6.214;2024-01-30T05:50:18;19.52;;;17.42;;
57389;SDS011;43217;52.694;6.214;2024-01-30T05:52:44;18.77;;;16.65;;
57389;SDS011;43217;52.694;6.214;2024-01-30T05:55:09;18.92;;;17.02;;
57389;SDS011;43217;52.694;6.214;2024-01-30T05:57:36;19.10;;;17.23;;
57389;SDS011;43217;52.694;6.214;2024-01-30T06:00:03;19.50;;;17.42;;
57389;SDS011;43217;52.694;6.214;2024-01-30T06:02:29;19.00;;;16.63;;
57389;SDS011;43217;52.694;6.214;2024-01-30T06:04:55;18.77;;;16.77;;
57389;SDS011;43217;52.694;6.214;2024-01-30T06:07:20;18.90;;;16.65;;
57389;SDS011;43217;52.694;6.214;2024-01-30T06:09:47;18.67;;;16.73;;
57389;SDS011;43217;52.694;6.214;2024-01-30T06:12:13;18.80;;;16.98;;
57389;SDS011;43217;52.694;6.214;2024-01-30T06:14:38;18.83;;;16.83;;
57389;SDS011;43217;52.694;6.214;2024-01-30T06:17:04;18.52;;;16.63;;
57389;SDS011;43217;52.694;6.214;2024-01-30T06:19:30;18.85;;;16.85;;
57389;SDS011;43217;52.694;6.214;2024-01-30T06:21:57;17.88;;;16.05;;
57389;SDS011;43217;52.694;6.214;2024-01-30T06:24:23;18.77;;;16.88;;
57389;SDS011;43217;52.694;6.214;2024-01-30T06:26:48;18.80;;;16.90;;
57389;SDS011;43217;52.694;6.214;2024-01-30T06:29:14;18.30;;;16.45;;
57389;SDS011;43217;52.694;6.214;2024-01-30T06:31:43;19.60;;;17.67;;
57389;SDS011;43217;52.694;6.214;2024-01-30T06:34:09;19.02;;;17.23;;
57389;SDS011;43217;52.694;6.214;2024-01-30T06:36:36;20.50;;;16.55;;
57389;SDS011;43217;52.694;6.214;2024-01-30T06:39:02;19.95;;;17.95;;
57389;SDS011;43217;52.694;6.214;2024-01-30T06:41:28;19.33;;;17.35;;
57389;SDS011;43217;52.694;6.214;2024-01-30T06:43:54;19.33;;;17.33;;
57389;SDS011;43217;52.694;6.214;2024-01-30T06:46:20;19.75;;;16.33;;
57389;SDS011;43217;52.694;6.214;2024-01-30T06:48:46;18.80;;;16.83;;
57389;SDS011;43217;52.694;6.214;2024-01-30T06:51:11;18.50;;;16.50;;
57389;SDS011;43217;52.694;6.214;2024-01-30T06:53:37;17.85;;;15.73;;
57389;SDS011;43217;52.694;6.214;2024-01-30T06:56:03;18.02;;;16.25;;
57389;SDS011;43217;52.694;6.214;2024-01-30T06:58:29;18.60;;;16.80;;
57389;SDS011;43217;52.694;6.214;2024-01-30T07:00:55;20.45;;;18.45;;
57389;SDS011;43217;52.694;6.214;2024-01-30T07:03:21;18.58;;;16.80;;
57389;SDS011;43217;52.694;6.214;2024-01-30T07:05:47;18.00;;;16.17;;
57389;SDS011;43217;52.694;6.214;2024-01-30T07:08:12;18.67;;;16.80;;
57389;SDS011;43217;52.694;6.214;2024-01-30T07:10:38;17.25;;;15.55;;
57389;SDS011;43217;52.694;6.214;2024-01-30T07:13:03;17.35;;;15.52;;
57389;SDS011;43217;52.694;6.214;2024-01-30T07:15:30;18.35;;;16.38;;
57389;SDS011;43217;52.694;6.214;2024-01-30T07:17:56;19.85;;;15.93;;
57389;SDS011;43217;52.694;6.214;2024-01-30T07:20:22;18.50;;;15.65;;
57389;SDS011;43217;52.694;6.214;2024-01-30T07:22:47;16.50;;;14.80;;
57389;SDS011;43217;52.694;6.214;2024-01-30T07:25:13;17.90;;;15.02;;
57389;SDS011;43217;52.694;6.214;2024-01-30T07:27:39;16.92;;;14.80;;
57389;SDS011;43217;52.694;6.214;2024-01-30T07:30:05;16.45;;;14.68;;
57389;SDS011;43217;52.694;6.214;2024-01-30T07:32:31;17.55;;;15.35;;
57389;SDS011;43217;52.694;6.214;2024-01-30T07:34:57;16.92;;;15.13;;
57389;SDS011;43217;52.694;6.214;2024-01-30T07:37:22;16.80;;;15.18;;
57389;SDS011;43217;52.694;6.214;2024-01-30T07:39:48;17.88;;;15.80;;
57389;SDS011;43217;52.694;6.214;2024-01-30T07:42:13;17.42;;;15.63;;
57389;SDS011;43217;52.694;6.214;2024-01-30T07:44:39;17.30;;;15.50;;
57389;SDS011;43217;52.694;6.214;2024-01-30T07:47:05;16.05;;;14.40;;
57389;SDS011;43217;52.694;6.214;2024-01-30T07:49:30;16.02;;;14.50;;
57389;SDS011;43217;52.694;6.214;2024-01-30T07:51:57;16.52;;;14.60;;
57389;SDS011;43217;52.694;6.214;2024-01-30T07:54:22;16.55;;;14.95;;
57389;SDS011;43217;52.694;6.214;2024-01-30T07:56:49;16.08;;;14.43;;
57389;SDS011;43217;52.694;6.214;2024-01-30T07:59:14;16.23;;;14.65;;
57389;SDS011;43217;52.694;6.214;2024-01-30T08:01:40;16.05;;;14.52;;
57389;SDS011;43217;52.694;6.214;2024-01-30T08:04:06;15.95;;;14.25;;
57389;SDS011;43217;52.694;6.214;2024-01-30T08:06:32;16.42;;;14.75;;
57389;SDS011;43217;52.694;6.214;2024-01-30T08:08:58;16.67;;;14.18;;
57389;SDS011;43217;52.694;6.214;2024-01-30T08:11:24;16.13;;;13.95;;
57389;SDS011;43217;52.694;6.214;2024-01-30T08:13:54;17.58;;;14.57;;
57389;SDS011;43217;52.694;6.214;2024-01-30T08:16:20;16.20;;;14.50;;
57389;SDS011;43217;52.694;6.214;2024-01-30T08:18:46;15.43;;;13.82;;
57389;SDS011;43217;52.694;6.214;2024-01-30T08:21:12;16.30;;;14.70;;
57389;SDS011;43217;52.694;6.214;2024-01-30T08:23:38;15.73;;;14.00;;
57389;SDS011;43217;52.694;6.214;2024-01-30T08:26:04;18.45;;;14.52;;
57389;SDS011;43217;52.694;6.214;2024-01-30T08:28:35;15.57;;;13.95;;
57389;SDS011;43217;52.694;6.214;2024-01-30T08:31:01;15.90;;;14.23;;
57389;SDS011;43217;52.694;6.214;2024-01-30T08:33:27;16.77;;;14.98;;
57389;SDS011;43217;52.694;6.214;2024-01-30T08:35:52;16.02;;;14.40;;
57389;SDS011;43217;52.694;6.214;2024-01-30T08:38:18;16.20;;;14.50;;
57389;SDS011;43217;52.694;6.214;2024-01-30T08:40:44;16.50;;;14.63;;
57389;SDS011;43217;52.694;6.214;2024-01-30T08:43:10;15.88;;;14.27;;
57389;SDS011;43217;52.694;6.214;2024-01-30T08:45:36;15.38;;;13.80;;
57389;SDS011;43217;52.694;6.214;2024-01-30T08:48:01;18.27;;;14.63;;
57389;SDS011;43217;52.694;6.214;2024-01-30T08:50:27;16.58;;;14.85;;
57389;SDS011;43217;52.694;6.214;2024-01-30T08:52:53;17.52;;;15.40;;
57389;SDS011;43217;52.694;6.214;2024-01-30T08:55:18;16.25;;;14.07;;
57389;SDS011;43217;52.694;6.214;2024-01-30T08:57:44;14.93;;;13.27;;
57389;SDS011;43217;52.694;6.214;2024-01-30T09:00:10;15.93;;;13.65;;
57389;SDS011;43217;52.694;6.214;2024-01-30T09:02:36;16.50;;;13.80;;
57389;SDS011;43217;52.694;6.214;2024-01-30T09:05:01;16.00;;;14.18;;
57389;SDS011;43217;52.694;6.214;2024-01-30T09:07:27;15.15;;;13.60;;
57389;SDS011;43217;52.694;6.214;2024-01-30T09:09:53;15.68;;;13.65;;
57389;SDS011;43217;52.694;6.214;2024-01-30T09:12:18;16.35;;;14.63;;
57389;SDS011;43217;52.694;6.214;2024-01-30T09:14:44;18.95;;;16.77;;
57389;SDS011;43217;52.694;6.214;2024-01-30T09:17:10;16.77;;;15.05;;
57389;SDS011;43217;52.694;6.214;2024-01-30T09:19:35;15.98;;;14.38;;
57389;SDS011;43217;52.694;6.214;2024-01-30T09:22:01;32.15;;;25.90;;
57389;SDS011;43217;52.694;6.214;2024-01-30T09:24:27;33.83;;;26.77;;
57389;SDS011;43217;52.694;6.214;2024-01-30T09:26:52;28.60;;;25.75;;
57389;SDS011;43217;52.694;6.214;2024-01-30T09:29:18;17.95;;;16.30;;
57389;SDS011;43217;52.694;6.214;2024-01-30T09:31:44;16.83;;;15.10;;
57389;SDS011;43217;52.694;6.214;2024-01-30T09:34:10;18.60;;;16.70;;
57389;SDS011;43217;52.694;6.214;2024-01-30T09:36:37;22.17;;;20.10;;
57389;SDS011;43217;52.694;6.214;2024-01-30T09:39:02;20.27;;;18.27;;
57389;SDS011;43217;52.694;6.214;2024-01-30T09:41:29;18.08;;;16.30;;
57389;SDS011;43217;52.694;6.214;2024-01-30T09:43:57;22.50;;;16.88;;
57389;SDS011;43217;52.694;6.214;2024-01-30T09:46:22;16.88;;;15.18;;
57389;SDS011;43217;52.694;6.214;2024-01-30T09:48:52;17.35;;;15.18;;
57389;SDS011;43217;52.694;6.214;2024-01-30T09:51:20;18.08;;;16.17;;
57389;SDS011;43217;52.694;6.214;2024-01-30T09:53:47;17.38;;;15.10;;
57389;SDS011;43217;52.694;6.214;2024-01-30T09:56:13;17.92;;;16.23;;
57389;SDS011;43217;52.694;6.214;2024-01-30T09:58:39;18.67;;;16.67;;
57389;SDS011;43217;52.694;6.214;2024-01-30T10:01:05;18.20;;;15.68;;
57389;SDS011;43217;52.694;6.214;2024-01-30T10:03:31;18.48;;;16.58;;
57389;SDS011;43217;52.694;6.214;2024-01-30T10:05:57;24.98;;;21.58;;
57389;SDS011;43217;52.694;6.214;2024-01-30T10:08:23;24.38;;;21.45;;
57389;SDS011;43217;52.694;6.214;2024-01-30T10:10:49;17.70;;;14.13;;
57389;SDS011;43217;52.694;6.214;2024-01-30T10:13:15;17.63;;;15.13;;
57389;SDS011;43217;52.694;6.214;2024-01-30T10:15:41;16.92;;;14.77;;
57389;SDS011;43217;52.694;6.214;2024-01-30T10:18:10;18.20;;;14.70;;
57389;SDS011;43217;52.694;6.214;2024-01-30T10:20:36;16.95;;;14.05;;
57389;SDS011;43217;52.694;6.214;2024-01-30T10:23:02;19.05;;;14.52;;
57389;SDS011;43217;52.694;6.214;2024-01-30T10:25:28;19.33;;;14.82;;
57389;SDS011;43217;52.694;6.214;2024-01-30T10:27:56;15.40;;;13.88;;
57389;SDS011;43217;52.694;6.214;2024-01-30T10:30:22;18.10;;;14.57;;
57389;SDS011;43217;52.694;6.214;2024-01-30T10:32:49;19.13;;;14.30;;
57389;SDS011;43217;52.694;6.214;2024-01-30T10:35:15;17.63;;;14.73;;
57389;SDS011;43217;52.694;6.214;2024-01-30T10:37:43;19.63;;;14.93;;
57389;SDS011;43217;52.694;6.214;2024-01-30T10:40:09;19.60;;;13.95;;
57389;SDS011;43217;52.694;6.214;2024-01-30T10:42:38;16.98;;;13.57;;
57389;SDS011;43217;52.694;6.214;2024-01-30T10:45:13;17.77;;;13.77;;
57389;SDS011;43217;52.694;6.214;2024-01-30T10:47:44;24.40;;;16.23;;
57389;SDS011;43217;52.694;6.214;2024-01-30T10:50:17;18.17;;;14.25;;
57389;SDS011;43217;52.694;6.214;2024-01-30T10:52:43;18.83;;;13.80;;
57389;SDS011;43217;52.694;6.214;2024-01-30T10:55:10;19.35;;;14.93;;
57389;SDS011;43217;52.694;6.214;2024-01-30T10:57:36;17.58;;;14.32;;
57389;SDS011;43217;52.694;6.214;2024-01-30T11:00:06;20.63;;;14.88;;
57389;SDS011;43217;52.694;6.214;2024-01-30T11:02:36;15.73;;;13.75;;
57389;SDS011;43217;52.694;6.214;2024-01-30T11:05:07;22.30;;;14.85;;
57389;SDS011;43217;52.694;6.214;2024-01-30T11:07:33;18.33;;;14.85;;
57389;SDS011;43217;52.694;6.214;2024-01-30T11:12:26;17.20;;;15.40;;
57389;SDS011;43217;52.694;6.214;2024-01-30T11:15:08;18.13;;;16.23;;
57389;SDS011;43217;52.694;6.214;2024-01-30T11:22:48;17.80;;;15.20;;
57389;SDS011;43217;52.694;6.214;2024-01-30T11:25:16;16.98;;;15.13;;
57389;SDS011;43217;52.694;6.214;2024-01-30T11:27:44;20.25;;;15.82;;
57389;SDS011;43217;52.694;6.214;2024-01-30T11:30:11;17.40;;;14.57;;
57389;SDS011;43217;52.694;6.214;2024-01-30T11:32:57;17.47;;;14.87;;
57389;SDS011;43217;52.694;6.214;2024-01-30T11:35:24;18.58;;;14.82;;
57389;SDS011;43217;52.694;6.214;2024-01-30T11:37:50;15.35;;;13.75;;
57389;SDS011;43217;52.694;6.214;2024-01-30T11:40:16;15.13;;;12.90;;
57389;SDS011;43217;52.694;6.214;2024-01-30T11:42:41;15.25;;;11.43;;
57389;SDS011;43217;52.694;6.214;2024-01-30T11:45:08;12.57;;;10.30;;
57389;SDS011;43217;52.694;6.214;2024-01-30T11:47:35;11.77;;;10.05;;
57389;SDS011;43217;52.694;6.214;2024-01-30T11:50:03;11.40;;;10.18;;
57389;SDS011;43217;52.694;6.214;2024-01-30T11:52:31;11.55;;;10.25;;
57389;SDS011;43217;52.694;6.214;2024-01-30T11:54:58;13.90;;;11.30;;
57389;SDS011;43217;52.694;6.214;2024-01-30T11:57:26;15.85;;;11.75;;
57389;SDS011;43217;52.694;6.214;2024-01-30T12:02:17;17.33;;;12.70;;
57389;SDS011;43217;52.694;6.214;2024-01-30T12:04:43;18.85;;;12.85;;
57389;SDS011;43217;52.694;6.214;2024-01-30T12:07:09;16.92;;;12.50;;
57389;SDS011;43217;52.694;6.214;2024-01-30T12:09:35;11.98;;;9.73;;
57389;SDS011;43217;52.694;6.214;2024-01-30T12:12:02;9.38;;;8.05;;
57389;SDS011;43217;52.694;6.214;2024-01-30T12:14:27;9.07;;;8.00;;
57389;SDS011;43217;52.694;6.214;2024-01-30T12:16:53;9.13;;;7.35;;
57389;SDS011;43217;52.694;6.214;2024-01-30T12:19:23;10.55;;;6.72;;
57389;SDS011;43217;52.694;6.214;2024-01-30T12:21:58;11.30;;;6.80;;
57389;SDS011;43217;52.694;6.214;2024-01-30T12:24:25;7.60;;;5.63;;
57389;SDS011;43217;52.694;6.214;2024-01-30T12:26:51;10.15;;;6.63;;
57389;SDS011;43217;52.694;6.214;2024-01-30T12:29:18;8.77;;;6.22;;
57389;SDS011;43217;52.694;6.214;2024-01-30T12:31:45;8.63;;;7.55;;
57389;SDS011;43217;52.694;6.214;2024-01-30T12:34:13;11.25;;;8.35;;
57389;SDS011;43217;52.694;6.214;2024-01-30T12:36:41;12.25;;;8.70;;
57389;SDS011;43217;52.694;6.214;2024-01-30T12:39:10;14.88;;;9.70;;
57389;SDS011;43217;52.694;6.214;2024-01-30T12:41:37;16.10;;;8.52;;
57389;SDS011;43217;52.694;6.214;2024-01-30T12:44:03;10.27;;;7.68;;
57389;SDS011;43217;52.694;6.214;2024-01-30T12:46:29;12.57;;;8.25;;
57389;SDS011;43217;52.694;6.214;2024-01-30T12:48:54;9.82;;;6.80;;
57389;SDS011;43217;52.694;6.214;2024-01-30T12:51:20;10.65;;;6.80;;
57389;SDS011;43217;52.694;6.214;2024-01-30T12:53:46;9.88;;;4.47;;
57389;SDS011;43217;52.694;6.214;2024-01-30T12:56:13;6.57;;;3.90;;
57389;SDS011;43217;52.694;6.214;2024-01-30T12:58:40;6.80;;;3.63;;
57389;SDS011;43217;52.694;6.214;2024-01-30T13:01:07;7.32;;;3.95;;
57389;SDS011;43217;52.694;6.214;2024-01-30T13:03:33;5.15;;;3.65;;
57389;SDS011;43217;52.694;6.214;2024-01-30T13:05:59;5.55;;;3.80;;
57389;SDS011;43217;52.694;6.214;2024-01-30T13:08:25;8.20;;;4.07;;
57389;SDS011;43217;52.694;6.214;2024-01-30T13:10:50;6.03;;;3.50;;
57389;SDS011;43217;52.694;6.214;2024-01-30T13:13:19;5.30;;;3.45;;
57389;SDS011;43217;52.694;6.214;2024-01-30T13:15:45;5.22;;;3.72;;
57389;SDS011;43217;52.694;6.214;2024-01-30T13:18:10;7.93;;;4.93;;
57389;SDS011;43217;52.694;6.214;2024-01-30T13:20:36;4.45;;;3.50;;
57389;SDS011;43217;52.694;6.214;2024-01-30T13:23:01;5.20;;;3.67;;
57389;SDS011;43217;52.694;6.214;2024-01-30T13:25:27;3.55;;;3.08;;
57389;SDS011;43217;52.694;6.214;2024-01-30T13:27:53;4.68;;;3.10;;
57389;SDS011;43217;52.694;6.214;2024-01-30T13:30:18;3.75;;;3.40;;
57389;SDS011;43217;52.694;6.214;2024-01-30T13:32:44;4.57;;;3.20;;
57389;SDS011;43217;52.694;6.214;2024-01-30T13:35:11;5.22;;;3.65;;
57389;SDS011;43217;52.694;6.214;2024-01-30T13:37:36;4.55;;;3.85;;
57389;SDS011;43217;52.694;6.214;2024-01-30T13:40:03;5.75;;;3.33;;
57389;SDS011;43217;52.694;6.214;2024-01-30T13:42:32;4.97;;;3.53;;
57389;SDS011;43217;52.694;6.214;2024-01-30T13:44:57;5.40;;;3.50;;
57389;SDS011;43217;52.694;6.214;2024-01-30T13:47:23;4.32;;;3.15;;
57389;SDS011;43217;52.694;6.214;2024-01-30T13:49:50;6.18;;;3.25;;
57389;SDS011;43217;52.694;6.214;2024-01-30T13:52:17;6.85;;;3.38;;
57389;SDS011;43217;52.694;6.214;2024-01-30T13:54:43;4.03;;;3.15;;
57389;SDS011;43217;52.694;6.214;2024-01-30T13:57:09;4.10;;;2.53;;
57389;SDS011;43217;52.694;6.214;2024-01-30T13:59:34;5.78;;;2.45;;
57389;SDS011;43217;52.694;6.214;2024-01-30T14:02:00;4.47;;;1.98;;
57389;SDS011;43217;52.694;6.214;2024-01-30T14:04:26;3.20;;;1.85;;
57389;SDS011;43217;52.694;6.214;2024-01-30T14:06:51;3.88;;;1.80;;
57389;SDS011;43217;52.694;6.214;2024-01-30T14:09:17;3.42;;;2.13;;
57389;SDS011;43217;52.694;6.214;2024-01-30T14:11:42;3.13;;;1.90;;
57389;SDS011;43217;52.694;6.214;2024-01-30T14:14:08;3.55;;;1.98;;
57389;SDS011;43217;52.694;6.214;2024-01-30T14:16:34;3.92;;;2.33;;
57389;SDS011;43217;52.694;6.214;2024-01-30T14:19:00;6.15;;;2.38;;
57389;SDS011;43217;52.694;6.214;2024-01-30T14:21:25;2.95;;;2.20;;
57389;SDS011;43217;52.694;6.214;2024-01-30T14:23:51;3.08;;;2.78;;
57389;SDS011;43217;52.694;6.214;2024-01-30T14:26:17;4.32;;;2.60;;
57389;SDS011;43217;52.694;6.214;2024-01-30T14:28:43;4.53;;;2.58;;
57389;SDS011;43217;52.694;6.214;2024-01-30T14:31:08;3.13;;;2.55;;
57389;SDS011;43217;52.694;6.214;2024-01-30T14:33:34;4.63;;;3.10;;